Time;durP1;ratioP1;P1;durP2;ratioP2;P2;SDS_P1;SDS_P2;PMS_P1;PMS_P2;Temp;Humidity;BMP_temperature;BMP_pressure;BME280_temperature;BME280_humidity;BME280_pressure;Samples;Min_cycle;Max_cycle;Signal;HPM_P1;HPM_P2
2021/05/25 00:01:47;;;;;;;1.00;1.00;;;11.40;99.90;;;;;;5075786;28;20289;-69
2021/05/25 00:04:14;;;;;;;1.40;0.70;;;11.40;99.90;;;;;;5075749;28;20309;-69
2021/05/25 00:06:40;;;;;;;1.25;0.85;;;11.40;99.90;;;;;;5075309;28;20199;-69
2021/05/25 00:09:08;;;;;;;0.70;0.70;;;11.50;99.90;;;;;;5075533;28;20727;-69
2021/05/25 00:11:34;;;;;;;0.88;0.73;;;11.60;99.90;;;;;;5075994;28;20213;-69
2021/05/25 00:14:02;;;;;;;2.13;0.80;;;11.60;99.90;;;;;;5075435;28;20202;-69
2021/05/25 00:16:29;;;;;;;2.25;0.80;;;11.70;99.90;;;;;;5075277;28;20211;-69
2021/05/25 00:18:56;;;;;;;0.85;0.80;;;11.70;99.90;;;;;;5075420;28;20237;-69
2021/05/25 00:21:22;;;;;;;0.60;0.60;;;11.70;99.90;;;;;;5075368;28;20561;-69
2021/05/25 00:23:49;;;;;;;1.02;0.82;;;11.70;99.90;;;;;;5075336;28;20293;-69
2021/05/25 00:26:15;;;;;;;1.02;0.90;;;11.70;99.90;;;;;;5075040;28;20293;-69
2021/05/25 00:28:42;;;;;;;1.27;0.85;;;11.80;99.90;;;;;;5075593;28;20250;-69
2021/05/25 00:31:08;;;;;;;0.90;0.90;;;11.70;99.90;;;;;;5075149;28;20249;-69
2021/05/25 00:33:34;;;;;;;0.63;0.63;;;11.70;99.90;;;;;;5075126;28;20289;-69
2021/05/25 00:36:02;;;;;;;0.80;0.77;;;11.70;99.90;;;;;;5074703;28;20698;-70
2021/05/25 00:38:28;;;;;;;0.85;0.85;;;11.60;99.90;;;;;;5074969;28;20223;-69
2021/05/25 00:40:54;;;;;;;0.73;0.73;;;11.70;99.90;;;;;;5075064;28;20294;-70
2021/05/25 00:43:21;;;;;;;2.55;0.77;;;11.50;99.90;;;;;;5074821;28;20291;-69
2021/05/25 00:45:48;;;;;;;0.90;0.63;;;11.50;99.90;;;;;;5074661;28;20203;-70
2021/05/25 00:48:14;;;;;;;0.73;0.73;;;11.30;99.90;;;;;;5074778;28;20248;-69
2021/05/25 00:50:40;;;;;;;0.73;0.70;;;11.20;99.90;;;;;;5074716;28;20223;-69
2021/05/25 00:53:07;;;;;;;0.80;0.80;;;11.10;99.90;;;;;;5074146;28;20660;-70
2021/05/25 00:55:36;;;;;;;1.70;0.93;;;11.00;99.90;;;;;;5074217;28;20198;-70
2021/05/25 00:58:05;;;;;;;0.85;0.85;;;10.90;99.90;;;;;;5074633;28;20309;-70
2021/05/25 01:00:34;;;;;;;0.93;0.90;;;10.90;99.90;;;;;;5074594;28;20198;-69
2021/05/25 01:03:00;;;;;;;1.30;0.80;;;10.90;99.90;;;;;;5074520;28;20230;-69
2021/05/25 01:05:27;;;;;;;0.85;0.80;;;11.00;99.90;;;;;;5074290;28;20340;-69
2021/05/25 01:07:54;;;;;;;1.02;0.93;;;11.00;99.90;;;;;;5074310;28;20226;-69
2021/05/25 01:10:27;;;;;;;1.95;0.90;;;11.00;99.90;;;;;;5074037;28;20309;-69
2021/05/25 01:12:55;;;;;;;3.83;1.10;;;10.80;99.90;;;;;;5074363;28;20209;-70
2021/05/25 01:15:23;;;;;;;2.05;1.10;;;10.80;99.90;;;;;;5074166;28;20568;-69
2021/05/25 01:17:51;;;;;;;3.00;1.10;;;10.60;99.90;;;;;;5074158;28;20222;-69
2021/05/25 01:20:19;;;;;;;2.13;1.20;;;10.50;99.90;;;;;;5074306;28;20557;-69
2021/05/25 01:22:47;;;;;;;1.60;1.00;;;10.40;99.90;;;;;;5074028;28;20206;-69
2021/05/25 01:25:15;;;;;;;1.15;1.05;;;10.50;99.90;;;;;;5073935;28;20298;-69
2021/05/25 01:27:48;;;;;;;1.77;0.90;;;10.50;99.90;;;;;;5073881;28;20307;-69
2021/05/25 01:30:16;;;;;;;1.15;1.00;;;10.50;99.90;;;;;;5074326;28;20264;-70
2021/05/25 01:32:42;;;;;;;1.10;1.00;;;10.40;99.90;;;;;;5074016;28;20202;-69
2021/05/25 01:35:09;;;;;;;2.72;0.90;;;10.40;99.90;;;;;;5073880;28;20209;-69
2021/05/25 01:37:36;;;;;;;1.05;1.00;;;10.30;99.90;;;;;;5073668;28;20258;-69
2021/05/25 01:40:04;;;;;;;0.98;0.80;;;10.30;99.90;;;;;;5073950;28;20636;-69
2021/05/25 01:42:32;;;;;;;0.98;0.80;;;10.20;99.90;;;;;;5073636;28;20210;-69
2021/05/25 01:44:58;;;;;;;1.55;1.20;;;10.20;99.90;;;;;;5073852;28;20297;-69
2021/05/25 01:47:25;;;;;;;1.50;1.13;;;10.10;99.90;;;;;;5073598;28;20203;-69
2021/05/25 01:49:51;;;;;;;0.90;0.90;;;10.10;99.90;;;;;;5073724;28;20318;-69
2021/05/25 01:52:18;;;;;;;1.13;1.02;;;10.00;99.90;;;;;;5073526;28;20209;-69
2021/05/25 01:54:45;;;;;;;1.55;0.90;;;9.90;99.90;;;;;;5073726;28;20557;-69
2021/05/25 01:57:12;;;;;;;0.70;0.70;;;10.00;99.90;;;;;;5073470;28;20206;-69
2021/05/25 01:59:38;;;;;;;1.25;0.93;;;10.00;99.90;;;;;;5073407;28;20201;-69
2021/05/25 02:02:04;;;;;;;2.58;1.02;;;9.90;99.90;;;;;;5073673;28;20336;-69
2021/05/25 02:04:32;;;;;;;1.65;1.20;;;9.90;99.90;;;;;;5072843;28;20542;-69
2021/05/25 02:06:59;;;;;;;1.98;1.13;;;9.80;99.90;;;;;;5073454;28;20542;-69
2021/05/25 02:09:25;;;;;;;1.05;0.88;;;9.80;99.90;;;;;;5073459;28;20248;-69
2021/05/25 02:11:51;;;;;;;2.17;0.90;;;9.80;99.90;;;;;;5073550;28;20244;-69
2021/05/25 02:14:18;;;;;;;1.13;1.00;;;9.90;99.90;;;;;;5073514;28;20198;-69
2021/05/25 02:16:45;;;;;;;1.13;0.80;;;9.90;99.90;;;;;;5073137;28;20238;-69
2021/05/25 02:19:11;;;;;;;2.47;0.80;;;9.90;99.90;;;;;;5073152;28;20309;-69
2021/05/25 02:21:37;;;;;;;2.22;1.27;;;9.90;99.90;;;;;;5073475;28;20233;-69
2021/05/25 02:24:05;;;;;;;0.60;0.60;;;10.00;99.90;;;;;;5073291;28;20290;-69
2021/05/25 02:26:31;;;;;;;1.70;1.00;;;10.00;99.90;;;;;;5073214;28;20198;-69
2021/05/25 02:28:57;;;;;;;1.00;0.90;;;10.10;99.90;;;;;;5073110;28;20258;-69
2021/05/25 02:31:24;;;;;;;0.90;0.90;;;10.00;99.90;;;;;;5072959;28;20229;-69
2021/05/25 02:33:51;;;;;;;1.73;1.02;;;10.00;99.90;;;;;;5073392;28;20625;-69
2021/05/25 02:36:17;;;;;;;2.10;1.10;;;10.10;99.90;;;;;;5073050;28;20199;-69
2021/05/25 02:38:43;;;;;;;2.38;1.60;;;10.00;99.90;;;;;;5073248;28;20611;-69
2021/05/25 02:41:09;;;;;;;1.35;0.95;;;10.00;99.90;;;;;;5073282;28;20720;-69
2021/05/25 02:43:36;;;;;;;1.23;0.80;;;10.10;99.90;;;;;;5073206;28;20242;-69
2021/05/25 02:46:02;;;;;;;2.67;1.10;;;10.10;99.90;;;;;;5072897;28;20198;-69
2021/05/25 02:48:29;;;;;;;1.95;1.10;;;10.10;99.90;;;;;;5073152;28;20363;-69
2021/05/25 02:50:57;;;;;;;1.23;0.90;;;10.20;99.90;;;;;;5073080;28;20317;-69
2021/05/25 02:53:24;;;;;;;1.63;1.00;;;10.20;99.90;;;;;;5073170;28;20209;-69
2021/05/25 02:55:50;;;;;;;1.33;1.00;;;10.10;99.90;;;;;;5072853;28;20198;-69
2021/05/25 02:58:17;;;;;;;0.80;0.80;;;10.10;99.90;;;;;;5073458;28;20677;-69
2021/05/25 03:00:45;;;;;;;1.70;0.90;;;10.20;99.90;;;;;;5073077;28;20198;-69
2021/05/25 03:03:12;;;;;;;1.88;0.80;;;10.20;99.90;;;;;;5072803;28;20206;-69
2021/05/25 03:05:40;;;;;;;1.42;0.82;;;10.30;99.90;;;;;;5072660;28;20456;-70
2021/05/25 03:08:09;;;;;;;1.83;0.77;;;10.30;99.90;;;;;;5072828;28;20261;-69
2021/05/25 03:10:38;;;;;;;0.95;0.90;;;10.30;99.90;;;;;;5072996;28;20312;-68
2021/05/25 03:13:05;;;;;;;1.23;0.77;;;10.30;99.90;;;;;;5072907;28;20218;-69
2021/05/25 03:15:33;;;;;;;2.47;0.80;;;10.30;99.90;;;;;;5074623;28;20289;-69
2021/05/25 03:18:00;;;;;;;1.48;0.75;;;10.30;99.90;;;;;;5076293;28;20229;-69
2021/05/25 03:20:27;;;;;;;2.70;1.13;;;10.30;99.90;;;;;;5076559;28;20289;-69
2021/05/25 03:22:55;;;;;;;2.65;1.10;;;10.30;99.90;;;;;;5076527;28;20593;-69
2021/05/25 03:25:22;;;;;;;1.80;0.88;;;10.30;99.90;;;;;;5076293;28;20199;-69
2021/05/25 03:27:48;;;;;;;1.50;0.70;;;10.30;99.90;;;;;;5076247;28;20696;-69
2021/05/25 03:30:17;;;;;;;0.80;0.80;;;10.40;99.90;;;;;;5076315;28;20230;-69
2021/05/25 03:32:44;;;;;;;1.05;0.65;;;10.40;99.90;;;;;;5076108;28;20294;-69
2021/05/25 03:35:12;;;;;;;0.80;0.70;;;10.40;99.90;;;;;;5076247;28;20355;-69
2021/05/25 03:37:39;;;;;;;0.68;0.68;;;10.40;99.90;;;;;;5075995;28;20227;-69
2021/05/25 03:40:09;;;;;;;1.95;0.80;;;10.40;99.90;;;;;;5076213;28;20290;-69
2021/05/25 03:42:35;;;;;;;0.93;0.60;;;10.30;99.90;;;;;;5075945;28;20210;-69
2021/05/25 03:45:02;;;;;;;0.60;0.60;;;10.20;99.90;;;;;;5076127;28;20238;-69
2021/05/25 03:47:29;;;;;;;1.90;1.10;;;10.10;99.90;;;;;;5075795;28;20290;-69
2021/05/25 03:50:06;;;;;;;1.13;0.90;;;10.10;99.90;;;;;;5076017;28;20379;-70
2021/05/25 03:52:33;;;;;;;0.80;0.80;;;10.00;99.90;;;;;;5076008;28;20301;-69
2021/05/25 03:55:00;;;;;;;0.70;0.70;;;9.90;99.90;;;;;;5075953;28;20601;-69
2021/05/25 04:00:09;;;;;;;0.80;0.80;;;9.80;99.90;;;;;;5075349;28;20194;-69
2021/05/25 04:02:36;;;;;;;1.83;1.10;;;9.80;99.90;;;;;;5075664;28;20289;-69
2021/05/25 04:05:03;;;;;;;1.35;0.77;;;9.90;99.90;;;;;;5075649;28;20206;-68
2021/05/25 04:07:29;;;;;;;0.95;0.80;;;9.90;99.90;;;;;;5075197;28;20297;-69
2021/05/25 04:09:55;;;;;;;1.70;0.80;;;9.80;99.90;;;;;;5075996;28;20630;-69
2021/05/25 04:12:22;;;;;;;0.88;0.75;;;9.90;99.90;;;;;;5075610;28;20205;-69
2021/05/25 04:14:49;;;;;;;1.25;0.70;;;10.00;99.90;;;;;;5075398;28;20669;-69
2021/05/25 04:17:15;;;;;;;0.70;0.70;;;10.10;99.90;;;;;;5075268;28;20207;-69
2021/05/25 04:19:41;;;;;;;1.90;0.88;;;10.10;99.90;;;;;;5075450;28;20215;-69
2021/05/25 04:22:08;;;;;;;0.70;0.70;;;10.20;99.90;;;;;;5075402;28;20294;-69
2021/05/25 04:24:34;;;;;;;0.88;0.60;;;10.20;99.90;;;;;;5075084;28;20203;-69
2021/05/25 04:27:00;;;;;;;1.00;0.90;;;10.30;99.90;;;;;;5074444;28;20609;-69
2021/05/25 04:29:26;;;;;;;1.05;0.95;;;10.30;99.90;;;;;;5074831;28;20317;-69
2021/05/25 04:31:54;;;;;;;2.35;0.75;;;10.30;99.90;;;;;;5075652;28;20226;-69
2021/05/25 04:34:20;;;;;;;0.98;0.90;;;10.30;99.90;;;;;;5075058;28;20224;-69
2021/05/25 04:36:46;;;;;;;1.15;0.75;;;10.30;99.90;;;;;;5074945;28;20273;-69
2021/05/25 04:39:12;;;;;;;1.25;0.70;;;10.30;99.90;;;;;;5074709;28;20313;-69
2021/05/25 04:41:39;;;;;;;1.00;0.75;;;10.30;99.90;;;;;;5074880;28;20226;-69
2021/05/25 04:44:06;;;;;;;0.60;0.60;;;10.40;99.90;;;;;;5074949;28;20207;-69
2021/05/25 04:46:32;;;;;;;0.77;0.77;;;10.30;99.90;;;;;;5074618;28;20212;-69
2021/05/25 04:48:59;;;;;;;0.50;0.50;;;10.20;99.90;;;;;;5074770;28;20253;-69
2021/05/25 04:51:25;;;;;;;0.80;0.77;;;10.30;99.90;;;;;;5074687;28;20260;-69
2021/05/25 04:53:52;;;;;;;1.63;0.65;;;10.30;99.90;;;;;;5074534;28;20286;-69
2021/05/25 04:56:20;;;;;;;0.90;0.50;;;10.30;99.90;;;;;;5074471;28;20230;-69
2021/05/25 04:58:46;;;;;;;1.35;0.85;;;10.30;99.90;;;;;;5074585;28;20646;-69
2021/05/25 05:01:13;;;;;;;1.05;0.50;;;10.40;99.90;;;;;;5074650;28;20281;-69
2021/05/25 05:03:39;;;;;;;1.83;0.88;;;10.40;99.90;;;;;;5074444;28;20315;-69
2021/05/25 05:06:06;;;;;;;0.52;0.50;;;10.50;99.90;;;;;;5074379;28;20205;-69
2021/05/25 05:08:33;;;;;;;1.75;0.88;;;10.60;99.90;;;;;;5074460;28;20226;-69
2021/05/25 05:10:59;;;;;;;2.20;0.50;;;10.80;99.90;;;;;;5074174;28;20700;-69
2021/05/25 05:13:25;;;;;;;1.92;0.60;;;10.80;99.90;;;;;;5074349;28;20305;-69
2021/05/25 05:15:51;;;;;;;0.40;0.40;;;10.80;99.90;;;;;;5074158;28;20624;-69
2021/05/25 05:18:18;;;;;;;0.77;0.50;;;10.90;99.90;;;;;;5074158;28;20224;-70
2021/05/25 05:20:44;;;;;;;0.80;0.60;;;10.90;99.90;;;;;;5074182;28;20198;-69
2021/05/25 05:23:11;;;;;;;0.98;0.60;;;11.00;99.90;;;;;;5074091;28;20293;-69
2021/05/25 05:25:37;;;;;;;0.52;0.50;;;11.00;99.90;;;;;;5073938;28;20289;-69
2021/05/25 05:28:04;;;;;;;2.00;1.40;;;11.00;99.90;;;;;;5073945;28;20267;-69
2021/05/25 05:30:31;;;;;;;1.70;1.00;;;11.10;99.90;;;;;;5073717;28;20223;-69
2021/05/25 05:32:57;;;;;;;0.40;0.40;;;11.10;99.90;;;;;;5073996;28;20208;-69
2021/05/25 05:35:23;;;;;;;0.63;0.50;;;11.10;99.90;;;;;;5073585;28;20213;-70
2021/05/25 05:37:50;;;;;;;0.60;0.43;;;11.10;99.90;;;;;;5073305;28;20704;-69
2021/05/25 05:40:17;;;;;;;0.80;0.60;;;11.10;99.90;;;;;;5073206;28;20289;-69
2021/05/25 05:42:44;;;;;;;2.35;0.65;;;11.10;99.90;;;;;;5073631;28;20297;-69
2021/05/25 05:45:11;;;;;;;0.70;0.60;;;11.10;99.90;;;;;;5073745;28;20293;-69
2021/05/25 05:47:38;;;;;;;0.85;0.63;;;11.20;99.90;;;;;;5073612;28;20558;-69
2021/05/25 05:50:10;;;;;;;0.82;0.70;;;11.20;99.90;;;;;;5073530;28;20313;-69
2021/05/25 05:52:37;;;;;;;0.60;0.50;;;11.30;99.90;;;;;;5073649;28;20685;-69
2021/05/25 05:55:05;;;;;;;0.50;0.50;;;11.30;99.90;;;;;;5073749;28;20203;-69
2021/05/25 05:57:32;;;;;;;0.70;0.60;;;11.30;99.90;;;;;;5073595;28;20210;-70
2021/05/25 05:59:59;;;;;;;0.60;0.50;;;11.30;99.90;;;;;;5073729;28;20557;-69
2021/05/25 06:02:25;;;;;;;1.40;0.60;;;11.40;99.90;;;;;;5073675;28;20576;-69
2021/05/25 06:04:52;;;;;;;1.88;0.70;;;11.40;99.70;;;;;;5073625;28;20199;-69
2021/05/25 06:07:19;;;;;;;0.63;0.50;;;11.50;99.40;;;;;;5073241;28;20297;-69
2021/05/25 06:09:46;;;;;;;0.75;0.68;;;11.60;99.20;;;;;;5073765;28;20207;-69
2021/05/25 06:12:13;;;;;;;1.70;1.00;;;11.60;99.40;;;;;;5073493;28;20206;-69
2021/05/25 06:14:40;;;;;;;2.05;0.85;;;11.60;98.10;;;;;;5073273;28;20667;-69
2021/05/25 06:17:06;;;;;;;1.10;1.00;;;11.60;98.10;;;;;;5073124;28;20673;-69
2021/05/25 06:19:32;;;;;;;2.67;0.70;;;11.60;98.40;;;;;;5073497;28;20566;-69
2021/05/25 06:21:59;;;;;;;0.85;0.70;;;11.70;97.70;;;;;;5073278;28;20281;-69
2021/05/25 06:24:25;;;;;;;0.55;0.55;;;11.70;97.50;;;;;;5073379;28;20206;-69
2021/05/25 06:26:51;;;;;;;2.20;1.50;;;11.80;98.40;;;;;;5073029;28;20199;-69
2021/05/25 06:29:18;;;;;;;0.93;0.93;;;11.90;97.40;;;;;;5073056;28;20223;-69
2021/05/25 06:31:45;;;;;;;1.00;0.50;;;11.90;96.80;;;;;;5073121;28;20728;-69
2021/05/25 06:34:11;;;;;;;0.95;0.50;;;12.00;96.60;;;;;;5073352;28;20203;-69
2021/05/25 06:36:38;;;;;;;1.05;0.70;;;11.80;96.30;;;;;;5072998;28;20289;-69
2021/05/25 06:39:05;;;;;;;0.82;0.82;;;11.80;95.90;;;;;;5073239;28;20653;-69
2021/05/25 06:41:31;;;;;;;0.80;0.80;;;11.90;95.90;;;;;;5073089;28;20205;-70
2021/05/25 06:43:58;;;;;;;0.55;0.55;;;11.90;96.00;;;;;;5073010;28;20206;-70
2021/05/25 06:46:24;;;;;;;1.70;0.95;;;12.10;96.30;;;;;;5073095;28;20298;-69
2021/05/25 06:48:51;;;;;;;1.00;0.60;;;12.20;96.70;;;;;;5073198;28;20219;-70
2021/05/25 06:51:17;;;;;;;1.17;0.70;;;12.30;96.60;;;;;;5076273;28;20237;-69
2021/05/25 06:53:44;;;;;;;0.70;0.70;;;12.40;96.00;;;;;;5077021;28;20727;-69
2021/05/25 06:56:10;;;;;;;0.60;0.60;;;12.50;95.10;;;;;;5076765;28;20209;-70
2021/05/25 06:58:36;;;;;;;1.50;0.60;;;12.60;94.90;;;;;;5076665;28;20222;-69
2021/05/25 07:01:02;;;;;;;0.77;0.63;;;12.70;94.30;;;;;;5076918;28;20289;-69
2021/05/25 07:03:29;;;;;;;0.75;0.70;;;12.70;93.90;;;;;;5076740;28;20209;-70
2021/05/25 07:05:56;;;;;;;1.02;0.50;;;12.70;93.40;;;;;;5076466;28;20207;-69
2021/05/25 07:08:22;;;;;;;1.40;0.50;;;12.80;93.60;;;;;;5076563;28;20234;-70
2021/05/25 07:10:49;;;;;;;0.60;0.60;;;12.60;93.10;;;;;;5076682;28;20643;-69
2021/05/25 07:13:15;;;;;;;0.50;0.50;;;12.60;93.50;;;;;;5076661;28;20218;-69
2021/05/25 07:15:42;;;;;;;0.60;0.60;;;12.60;93.80;;;;;;5076470;28;20213;-69
2021/05/25 07:18:08;;;;;;;0.73;0.60;;;12.40;93.10;;;;;;5076299;28;20314;-68
2021/05/25 07:20:34;;;;;;;0.75;0.68;;;12.40;93.80;;;;;;5076643;28;20282;-69
2021/05/25 07:23:02;;;;;;;4.30;0.90;;;12.30;92.80;;;;;;5076479;28;20228;-69
2021/05/25 07:25:29;;;;;;;0.77;0.75;;;12.30;93.70;;;;;;5076042;28;20213;-70
2021/05/25 07:27:57;;;;;;;2.75;0.90;;;12.40;93.50;;;;;;5076111;28;20754;-69
2021/05/25 07:30:23;;;;;;;1.17;0.80;;;12.50;93.90;;;;;;5076313;28;20222;-68
2021/05/25 07:32:50;;;;;;;2.95;0.70;;;12.60;93.10;;;;;;5076324;28;20203;-69
2021/05/25 07:35:16;;;;;;;1.15;0.88;;;12.60;91.90;;;;;;5076258;28;20289;-69
2021/05/25 07:37:43;;;;;;;1.10;0.60;;;12.60;92.10;;;;;;5076026;28;20230;-69
2021/05/25 07:40:14;;;;;;;0.93;0.50;;;12.70;92.10;;;;;;5076215;28;20202;-69
2021/05/25 07:42:41;;;;;;;0.70;0.57;;;12.80;92.20;;;;;;5076073;28;20269;-69
2021/05/25 07:45:08;;;;;;;1.75;0.73;;;12.90;92.00;;;;;;5076181;28;20594;-69
2021/05/25 07:47:35;;;;;;;0.80;0.80;;;12.90;91.90;;;;;;5075833;28;20652;-69
2021/05/25 07:50:12;;;;;;;1.30;0.40;;;12.90;90.90;;;;;;5076043;28;20657;-69
2021/05/25 07:52:39;;;;;;;0.73;0.70;;;12.90;90.30;;;;;;5076204;28;20211;-69
2021/05/25 07:55:07;;;;;;;3.60;0.70;;;13.00;90.40;;;;;;5076153;28;20213;-68
2021/05/25 07:57:34;;;;;;;0.77;0.70;;;13.00;88.10;;;;;;5075483;28;20816;-69
2021/05/25 08:00:00;;;;;;;0.60;0.60;;;13.00;87.70;;;;;;5075939;28;20230;-69
2021/05/25 08:02:27;;;;;;;0.80;0.60;;;13.10;87.30;;;;;;5074669;28;20737;-69
2021/05/25 08:04:53;;;;;;;1.15;0.88;;;13.20;86.30;;;;;;5075633;28;20203;-69
2021/05/25 08:07:19;;;;;;;0.60;0.60;;;13.30;86.60;;;;;;5075257;28;20661;-69
2021/05/25 08:09:46;;;;;;;1.00;0.80;;;13.20;86.00;;;;;;5075396;28;20202;-69
2021/05/25 08:12:12;;;;;;;0.60;0.60;;;13.30;86.50;;;;;;5075588;28;20593;-69
2021/05/25 08:14:39;;;;;;;2.25;0.77;;;13.30;87.20;;;;;;5075467;28;20203;-69
2021/05/25 08:17:17;;;;;;;3.60;0.70;;;13.20;87.10;;;;;;5075133;28;20207;-68
2021/05/25 08:19:44;;;;;;;2.00;0.80;;;13.00;86.90;;;;;;5075499;28;20237;-69
2021/05/25 08:22:11;;;;;;;0.70;0.70;;;12.90;87.40;;;;;;5075451;28;20206;-69
2021/05/25 08:24:37;;;;;;;0.40;0.40;;;13.40;87.60;;;;;;5075395;28;20335;-69
2021/05/25 08:27:04;;;;;;;1.17;0.60;;;13.80;83.90;;;;;;5075142;28;20203;-69
2021/05/25 08:29:30;;;;;;;0.60;0.52;;;13.90;82.40;;;;;;5074957;28;20279;-69
2021/05/25 08:31:57;;;;;;;0.75;0.60;;;14.00;82.50;;;;;;5075105;28;20250;-69
2021/05/25 08:34:25;;;;;;;1.20;0.55;;;14.00;81.30;;;;;;5075159;28;20263;-69
2021/05/25 08:36:51;;;;;;;0.70;0.70;;;13.70;79.80;;;;;;5075003;28;20268;-69
2021/05/25 08:39:18;;;;;;;0.98;0.88;;;13.70;81.10;;;;;;5075052;28;20581;-69
2021/05/25 08:41:44;;;;;;;0.60;0.60;;;13.50;80.20;;;;;;5074932;28;20617;-69
2021/05/25 08:44:11;;;;;;;1.15;0.60;;;13.80;80.80;;;;;;5075033;28;20289;-69
2021/05/25 08:46:38;;;;;;;1.48;0.80;;;14.50;79.30;;;;;;5074611;28;20289;-69
2021/05/25 08:49:11;;;;;;;0.50;0.50;;;14.60;78.90;;;;;;5074945;28;20612;-69
2021/05/25 08:51:37;;;;;;;0.77;0.65;;;14.40;78.60;;;;;;5074634;28;20220;-69
2021/05/25 08:54:05;;;;;;;1.60;0.65;;;14.90;79.60;;;;;;5074652;28;20199;-69
2021/05/25 08:56:31;;;;;;;0.70;0.70;;;15.10;78.10;;;;;;5074438;28;20203;-69
2021/05/25 08:58:58;;;;;;;0.85;0.85;;;16.10;73.60;;;;;;5074414;28;20336;-70
2021/05/25 09:01:24;;;;;;;1.90;0.70;;;17.60;69.40;;;;;;5074647;28;20290;-70
2021/05/25 09:03:58;;;;;;;2.55;0.90;;;17.60;65.50;;;;;;5074607;28;20206;-69
2021/05/25 09:06:39;;;;;;;1.30;0.57;;;18.00;64.30;;;;;;5074246;28;20294;-69
2021/05/25 09:09:07;;;;;;;1.30;0.60;;;18.00;63.10;;;;;;5074430;28;20227;-69
2021/05/25 09:11:33;;;;;;;1.10;0.60;;;17.90;62.40;;;;;;5074339;28;20219;-69
2021/05/25 09:14:07;;;;;;;1.27;0.80;;;17.40;62.60;;;;;;5073944;28;20653;-69
2021/05/25 09:16:33;;;;;;;0.75;0.70;;;16.60;65.70;;;;;;5074205;28;20210;-69
2021/05/25 09:18:59;;;;;;;0.82;0.70;;;16.30;67.90;;;;;;5074008;28;20711;-69
2021/05/25 09:21:30;;;;;;;0.63;0.50;;;16.10;68.60;;;;;;5074233;28;20226;-69
2021/05/25 09:23:57;;;;;;;0.57;0.50;;;15.60;69.10;;;;;;5074105;28;20207;-70
2021/05/25 09:26:28;;;;;;;0.90;0.65;;;15.30;71.30;;;;;;5074041;28;20294;-69
2021/05/25 09:28:56;;;;;;;0.95;0.75;;;15.20;70.70;;;;;;5074116;28;20226;-69
2021/05/25 09:31:27;;;;;;;0.70;0.70;;;14.90;71.40;;;;;;5073877;28;20314;-69
2021/05/25 09:34:09;;;;;;;0.60;0.60;;;14.70;73.10;;;;;;5074098;28;20217;-69
2021/05/25 09:36:56;;;;;;;1.15;1.05;;;14.40;74.30;;;;;;5073697;28;20210;-69
2021/05/25 09:39:24;;;;;;;0.88;0.63;;;14.20;76.70;;;;;;5073996;28;20233;-69
2021/05/25 09:41:58;;;;;;;0.60;0.60;;;14.00;78.00;;;;;;5073843;28;20249;-69
2021/05/25 09:44:24;;;;;;;0.90;0.90;;;14.00;81.40;;;;;;5073927;28;20217;-69
2021/05/25 09:46:51;;;;;;;0.63;0.63;;;14.10;78.80;;;;;;5073415;28;20293;-69
2021/05/25 09:49:19;;;;;;;0.60;0.60;;;14.00;77.40;;;;;;5073535;28;20218;-69
2021/05/25 09:51:45;;;;;;;1.98;0.73;;;13.80;78.80;;;;;;5073499;28;20704;-69
2021/05/25 09:54:23;;;;;;;0.90;0.80;;;13.70;80.40;;;;;;5073622;28;20294;-69
2021/05/25 09:56:57;;;;;;;1.10;1.00;;;13.60;85.30;;;;;;5073398;28;20212;-69
2021/05/25 09:59:33;;;;;;;2.78;0.80;;;13.70;85.00;;;;;;5073606;28;20227;-69
2021/05/25 10:02:16;;;;;;;1.00;0.70;;;13.70;85.00;;;;;;5073685;28;20289;-69
2021/05/25 10:04:57;;;;;;;2.38;0.80;;;13.90;82.30;;;;;;5073694;28;20359;-69
2021/05/25 10:07:25;;;;;;;1.05;0.68;;;15.40;78.40;;;;;;5073410;28;20209;-70
2021/05/25 10:09:54;;;;;;;1.00;0.75;;;17.10;72.60;;;;;;5073591;28;20340;-70
2021/05/25 10:12:22;;;;;;;2.55;2.13;;;18.20;63.40;;;;;;5073478;28;20223;-69
2021/05/25 10:14:49;;;;;;;1.37;0.73;;;18.90;62.00;;;;;;5073516;28;20200;-70
2021/05/25 10:17:30;;;;;;;0.80;0.80;;;20.20;58.90;;;;;;5073329;28;20492;-70
2021/05/25 10:19:57;;;;;;;1.07;0.90;;;20.70;55.60;;;;;;5073575;28;20432;-70
2021/05/25 10:22:24;;;;;;;1.17;0.70;;;20.60;53.40;;;;;;5073381;28;20437;-69
2021/05/25 10:24:51;;;;;;;0.50;0.50;;;20.10;52.40;;;;;;5074300;28;20532;-70
2021/05/25 10:27:18;;;;;;;1.60;0.70;;;20.10;53.10;;;;;;5077379;28;20804;-69
2021/05/25 10:29:44;;;;;;;2.70;0.90;;;19.90;53.30;;;;;;5077549;28;20537;-69
2021/05/25 10:32:20;;;;;;;0.68;0.60;;;18.90;53.20;;;;;;5077452;28;20313;-69
2021/05/25 10:34:48;;;;;;;0.98;0.95;;;17.80;55.10;;;;;;5077430;28;20292;-69
2021/05/25 10:37:15;;;;;;;1.10;0.90;;;16.80;57.00;;;;;;5077270;28;20301;-69
2021/05/25 10:39:44;;;;;;;1.80;0.70;;;16.10;57.90;;;;;;5077470;28;20242;-69
2021/05/25 10:42:31;;;;;;;1.00;0.90;;;15.50;59.40;;;;;;5077182;28;20207;-69
2021/05/25 10:44:59;;;;;;;2.15;0.73;;;15.10;61.40;;;;;;5077370;28;20204;-69
2021/05/25 10:47:33;;;;;;;0.75;0.70;;;14.90;62.20;;;;;;5076689;28;20215;-69
2021/05/25 10:50:12;;;;;;;2.05;0.90;;;15.00;63.10;;;;;;5077234;28;20200;-69
2021/05/25 10:52:38;;;;;;;1.02;0.80;;;15.00;64.00;;;;;;5077021;28;20665;-69
2021/05/25 10:55:06;;;;;;;1.55;0.80;;;14.80;65.40;;;;;;5077070;28;20295;-69
2021/05/25 10:57:38;;;;;;;0.88;0.82;;;14.70;67.70;;;;;;5076780;28;20295;-69
2021/05/25 11:00:11;;;;;;;0.88;0.88;;;14.60;68.40;;;;;;5076958;28;20212;-69
2021/05/25 11:02:52;;;;;;;1.13;0.90;;;14.50;68.90;;;;;;5077287;28;20268;-69
2021/05/25 11:05:52;;;;;;;1.17;1.10;;;14.30;73.70;;;;;;5076846;28;20297;-68
2021/05/25 11:08:30;;;;;;;1.00;1.00;;;14.20;77.20;;;;;;5076527;28;20230;-69
2021/05/25 11:11:05;;;;;;;1.40;0.90;;;13.90;77.10;;;;;;5076714;28;20310;-69
2021/05/25 11:13:41;;;;;;;0.95;0.95;;;14.00;79.60;;;;;;5076758;28;20209;-69
2021/05/25 11:16:13;;;;;;;1.02;0.73;;;13.90;78.20;;;;;;5076354;28;20292;-69
2021/05/25 11:18:44;;;;;;;1.65;0.95;;;13.80;80.10;;;;;;5076487;28;20226;-69
2021/05/25 11:21:45;;;;;;;2.83;1.48;;;13.80;80.60;;;;;;5076404;28;20679;-69
2021/05/25 11:24:27;;;;;;;2.65;1.40;;;13.80;84.10;;;;;;5076468;28;20202;-69
2021/05/25 11:26:58;;;;;;;3.97;1.65;;;13.70;90.60;;;;;;5076081;28;20213;-68
2021/05/25 11:29:27;;;;;;;1.20;1.05;;;13.20;98.10;;;;;;5076441;28;20242;-69
2021/05/25 11:31:58;;;;;;;1.85;1.10;;;12.70;99.90;;;;;;5076140;28;20313;-68
2021/05/25 11:34:26;;;;;;;1.30;1.20;;;12.50;99.90;;;;;;5076393;28;20249;-68
2021/05/25 11:37:01;;;;;;;1.98;1.20;;;12.60;99.90;;;;;;5075911;28;20241;-69
2021/05/25 11:39:29;;;;;;;2.00;1.00;;;12.90;99.90;;;;;;5076133;28;20313;-69
2021/05/25 11:41:57;;;;;;;1.33;1.00;;;13.10;99.90;;;;;;5076082;28;20207;-69
2021/05/25 11:44:32;;;;;;;1.55;1.30;;;13.30;99.90;;;;;;5076193;28;20305;-69
2021/05/25 11:46:59;;;;;;;0.90;0.90;;;13.60;99.90;;;;;;5075822;28;20234;-69
2021/05/25 11:49:26;;;;;;;0.70;0.70;;;13.70;99.90;;;;;;5075755;28;20230;-69
2021/05/25 11:51:52;;;;;;;1.90;0.90;;;13.70;99.40;;;;;;5075916;28;20223;-69
2021/05/25 11:54:20;;;;;;;1.58;0.70;;;13.80;99.90;;;;;;5075990;28;20298;-69
2021/05/25 11:56:48;;;;;;;0.63;0.63;;;13.90;97.30;;;;;;5075760;28;20225;-68
2021/05/25 11:59:17;;;;;;;1.00;0.80;;;14.00;95.40;;;;;;5075896;28;20219;-69
2021/05/25 12:01:50;;;;;;;1.10;1.00;;;14.10;96.90;;;;;;5075742;28;20717;-69
2021/05/25 12:04:17;;;;;;;4.00;1.00;;;14.40;96.70;;;;;;5075790;28;20202;-69
2021/05/25 12:06:51;;;;;;;1.67;1.35;;;14.60;95.80;;;;;;5075306;28;20210;-69
2021/05/25 12:09:18;;;;;;;2.45;0.90;;;14.80;93.30;;;;;;5075727;28;20234;-69
2021/05/25 12:11:46;;;;;;;1.27;1.08;;;15.00;88.10;;;;;;5075582;28;20297;-69
2021/05/25 12:14:14;;;;;;;0.90;0.90;;;15.10;87.20;;;;;;5075829;28;20206;-69
2021/05/25 12:16:41;;;;;;;0.90;0.90;;;15.00;85.40;;;;;;5075200;28;20314;-69
2021/05/25 12:19:09;;;;;;;1.98;0.98;;;15.20;87.50;;;;;;5075464;28;20262;-69
2021/05/25 12:21:36;;;;;;;1.33;1.00;;;15.30;82.10;;;;;;5075473;28;20255;-69
2021/05/25 12:24:03;;;;;;;1.00;0.70;;;15.50;80.80;;;;;;5075436;28;20205;-69
2021/05/25 12:26:29;;;;;;;3.33;1.15;;;15.40;72.80;;;;;;5075026;28;20205;-69
2021/05/25 12:28:57;;;;;;;1.58;1.00;;;15.40;72.80;;;;;;5075123;28;20316;-69
2021/05/25 12:31:29;;;;;;;0.82;0.75;;;15.70;75.40;;;;;;5075094;28;20225;-69
2021/05/25 12:33:56;;;;;;;1.90;1.00;;;15.90;71.90;;;;;;5075248;28;20296;-69
2021/05/25 12:36:24;;;;;;;1.23;1.20;;;15.90;72.30;;;;;;5075062;28;20247;-69
2021/05/25 12:38:58;;;;;;;0.77;0.77;;;15.90;71.40;;;;;;5074799;28;20232;-69
2021/05/25 12:41:25;;;;;;;2.78;1.10;;;16.20;72.00;;;;;;5074939;28;20676;-69
2021/05/25 12:44:06;;;;;;;2.33;1.10;;;16.50;72.50;;;;;;5074869;28;20214;-69
2021/05/25 12:46:36;;;;;;;1.00;0.80;;;16.60;67.60;;;;;;5074837;28;20305;-69
2021/05/25 12:49:03;;;;;;;1.05;0.88;;;16.50;68.30;;;;;;5074400;28;20234;-69
2021/05/25 12:51:30;;;;;;;0.85;0.70;;;16.70;66.60;;;;;;5074649;28;20237;-69
2021/05/25 12:53:59;;;;;;;3.15;0.77;;;16.70;63.10;;;;;;5074829;28;20641;-69
2021/05/25 12:56:26;;;;;;;1.73;1.05;;;16.90;66.30;;;;;;5074408;28;20213;-69